Time;durP1;ratioP1;P1;durP2;ratioP2;P2;SDS_P1;SDS_P2;PMS_P1;PMS_P2;Temp;Humidity;BMP_temperature;BMP_pressure;BME280_temperature;BME280_humidity;BME280_pressure;Samples;Min_cycle;Max_cycle;Signal;HPM_P1;HPM_P2
2022/07/30 00:01:36;;;;;;;9.07;5.65;;;;;;;18.04;100.00;91099.94;5033302;28;20021;-71
2022/07/30 00:04:02;;;;;;;7.65;5.30;;;;;;;18.00;100.00;91104.47;5033187;28;20033;-71
2022/07/30 00:06:27;;;;;;;8.63;5.32;;;;;;;17.88;100.00;91099.94;5033132;28;20018;-71
2022/07/30 00:08:53;;;;;;;7.90;5.28;;;;;;;17.86;100.00;91104.13;5033092;28;20037;-72
2022/07/30 00:11:20;;;;;;;7.20;5.32;;;;;;;17.87;100.00;91098.38;5033129;28;20033;-71
2022/07/30 00:13:45;;;;;;;9.00;5.72;;;;;;;17.76;100.00;91096.56;5032947;28;20426;-71
2022/07/30 00:16:11;;;;;;;9.27;5.85;;;;;;;17.70;100.00;91097.97;5032880;28;20045;-72
2022/07/30 00:18:36;;;;;;;10.02;6.00;;;;;;;17.64;100.00;91102.78;5032954;28;20141;-71
2022/07/30 00:21:02;;;;;;;8.40;5.32;;;;;;;17.54;100.00;91087.16;5032926;28;20033;-71
2022/07/30 00:23:27;;;;;;;7.30;5.63;;;;;;;17.40;100.00;91087.59;5032766;28;20056;-72
2022/07/30 00:25:53;;;;;;;7.57;5.55;;;;;;;17.38;100.00;91094.44;5032895;28;20034;-71
2022/07/30 00:28:18;;;;;;;9.95;5.68;;;;;;;17.33;100.00;91095.47;5032875;28;20026;-71
2022/07/30 00:30:44;;;;;;;9.32;6.43;;;;;;;17.35;100.00;91091.28;5032615;28;20549;-71
2022/07/30 00:33:09;;;;;;;9.82;5.40;;;;;;;17.30;100.00;91096.94;5031236;28;20033;-72
2022/07/30 00:35:35;;;;;;;7.88;5.78;;;;;;;17.32;100.00;91085.84;5032530;28;20087;-72
2022/07/30 00:38:00;;;;;;;7.35;5.78;;;;;;;17.32;100.00;91086.63;5032615;28;20057;-72
2022/07/30 00:40:26;;;;;;;7.65;5.70;;;;;;;17.25;100.00;91091.03;5031267;28;20021;-72
2022/07/30 00:42:51;;;;;;;8.00;5.80;;;;;;;17.21;100.00;91082.88;5032417;28;20776;-72
2022/07/30 00:45:17;;;;;;;8.98;5.85;;;;;;;17.12;100.00;91079.56;5032482;28;20037;-71
2022/07/30 00:47:44;;;;;;;7.85;5.90;;;;;;;17.11;100.00;91090.66;5032424;28;20039;-72
2022/07/30 00:50:12;;;;;;;7.45;5.43;;;;;;;17.05;100.00;91082.84;5032307;28;20064;-72
2022/07/30 00:52:38;;;;;;;8.13;5.60;;;;;;;17.17;100.00;91081.22;5032065;28;20113;-72
2022/07/30 00:55:06;;;;;;;8.60;5.47;;;;;;;17.16;100.00;91082.34;5032452;28;20072;-71
2022/07/30 00:57:31;;;;;;;8.80;5.47;;;;;;;17.03;100.00;91077.03;5032099;28;20104;-71
2022/07/30 00:59:57;;;;;;;8.10;5.70;;;;;;;16.99;100.00;91073.47;5032174;28;20117;-71
2022/07/30 01:02:23;;;;;;;8.90;5.80;;;;;;;16.95;100.00;91077.97;5032007;28;20035;-71
2022/07/30 01:04:48;;;;;;;8.98;6.07;;;;;;;16.91;100.00;91079.00;5031419;28;20033;-72
2022/07/30 01:07:14;;;;;;;7.55;5.93;;;;;;;16.85;100.00;91075.78;5030784;28;20026;-71
2022/07/30 01:09:40;;;;;;;8.25;6.00;;;;;;;16.69;100.00;91074.94;5031908;28;20494;-71
2022/07/30 01:12:08;;;;;;;10.52;6.28;;;;;;;16.66;100.00;91072.91;5031962;28;20108;-71
2022/07/30 01:14:35;;;;;;;9.55;5.68;;;;;;;16.64;100.00;91072.47;5031767;28;20042;-72
2022/07/30 01:17:01;;;;;;;7.97;5.53;;;;;;;16.65;100.00;91077.50;5031701;28;20053;-72
2022/07/30 01:19:49;;;;;;;6.40;4.97;;;;;;;16.67;100.00;91077.97;5031746;28;20048;-71
2022/07/30 01:22:23;;;;;;;6.85;4.40;;;;;;;16.61;100.00;91063.19;5031631;28;20446;-72
2022/07/30 01:25:11;;;;;;;9.55;5.85;;;;;;;16.60;100.00;91066.22;5031664;28;20026;-72
2022/07/30 01:28:00;;;;;;;7.90;5.45;;;;;;;16.66;100.00;91062.16;5031678;28;20064;-72
2022/07/30 01:30:30;;;;;;;8.00;6.50;;;;;;;16.72;100.00;91063.50;5025874;28;20041;-71
2022/07/30 01:32:57;;;;;;;7.40;5.25;;;;;;;16.74;100.00;91072.81;5031746;28;20037;-71
2022/07/30 01:35:25;;;;;;;9.73;5.70;;;;;;;16.62;100.00;91061.28;5031600;28;20033;-71
2022/07/30 01:37:53;;;;;;;9.20;5.90;;;;;;;16.53;100.00;91066.78;5031720;28;20052;-71
2022/07/30 01:40:20;;;;;;;8.10;5.88;;;;;;;16.40;100.00;91068.72;5031424;28;20035;-71
2022/07/30 01:42:48;;;;;;;8.38;5.95;;;;;;;16.36;100.00;91067.84;5031354;28;20029;-71
2022/07/30 01:45:15;;;;;;;9.07;6.32;;;;;;;16.42;100.00;91065.72;5031592;28;20029;-71
2022/07/30 01:47:42;;;;;;;8.38;6.40;;;;;;;16.47;100.00;91060.13;5031306;28;20033;-71
2022/07/30 01:50:14;;;;;;;9.65;6.28;;;;;;;16.56;100.00;91059.97;5031229;28;20025;-71
2022/07/30 01:52:44;;;;;;;10.60;6.18;;;;;;;16.60;100.00;91061.63;5031166;28;20091;-71
2022/07/30 01:55:15;;;;;;;10.48;5.40;;;;;;;16.59;100.00;91064.66;5031272;28;20388;-71
2022/07/30 01:57:44;;;;;;;8.98;5.78;;;;;;;16.59;100.00;91059.28;5031197;28;20112;-72
2022/07/30 02:00:10;;;;;;;10.40;6.13;;;;;;;16.53;100.00;91063.34;5031462;28;20403;-72
2022/07/30 02:02:37;;;;;;;9.18;5.78;;;;;;;16.51;100.00;91061.00;5030965;28;20072;-72
2022/07/30 02:05:04;;;;;;;9.20;6.28;;;;;;;16.51;100.00;91065.56;5031110;28;20553;-72
2022/07/30 02:07:41;;;;;;;11.90;6.32;;;;;;;16.44;100.00;91064.25;5031180;28;20499;-72
2022/07/30 02:10:25;;;;;;;12.63;6.28;;;;;;;16.33;100.00;91060.47;5030973;28;20033;-72
2022/07/30 02:12:54;;;;;;;8.70;6.10;;;;;;;16.24;100.00;91059.03;5030976;28;20117;-72
2022/07/30 02:15:29;;;;;;;8.45;5.93;;;;;;;16.14;100.00;91050.34;5030696;28;20038;-72
2022/07/30 02:18:13;;;;;;;8.95;6.10;;;;;;;16.17;100.00;91052.34;5033925;28;20064;-72
2022/07/30 02:20:44;;;;;;;10.98;6.25;;;;;;;16.18;100.00;91047.78;5035122;28;20036;-72
2022/07/30 02:23:13;;;;;;;10.10;6.63;;;;;;;16.22;100.00;91039.81;5034909;28;20060;-72
2022/07/30 02:25:46;;;;;;;9.52;6.05;;;;;;;16.24;100.00;91041.03;5035029;28;20033;-72
2022/07/30 02:28:14;;;;;;;11.27;6.40;;;;;;;16.22;100.00;91050.56;5034947;28;20031;-72
2022/07/30 02:30:45;;;;;;;10.23;6.80;;;;;;;16.10;100.00;91038.75;5034883;28;20080;-71
2022/07/30 02:33:13;;;;;;;8.45;5.22;;;;;;;15.97;100.00;91034.50;5035012;28;20033;-72
2022/07/30 02:35:39;;;;;;;7.97;5.85;;;;;;;15.79;100.00;91039.34;5034861;28;20112;-71
2022/07/30 02:38:06;;;;;;;8.57;6.30;;;;;;;15.72;100.00;91039.13;5034901;28;20026;-71
2022/07/30 02:40:32;;;;;;;9.75;6.60;;;;;;;15.71;100.00;91045.59;5034787;28;20517;-71
2022/07/30 02:42:59;;;;;;;8.88;6.78;;;;;;;15.70;100.00;91044.03;5034883;28;20060;-72
2022/07/30 02:45:26;;;;;;;9.52;6.80;;;;;;;15.74;100.00;91047.59;5034708;28;20037;-72
2022/07/30 02:48:01;;;;;;;8.95;6.10;;;;;;;15.76;100.00;91040.00;5034630;28;20022;-71
2022/07/30 02:50:27;;;;;;;7.95;5.60;;;;;;;15.79;100.00;91042.03;5034589;28;20029;-72
2022/07/30 02:52:56;;;;;;;9.48;6.60;;;;;;;15.79;100.00;91028.63;5034400;28;20030;-71
2022/07/30 02:55:25;;;;;;;9.38;6.28;;;;;;;15.82;100.00;91036.00;5034750;28;20104;-70
2022/07/30 02:57:52;;;;;;;8.48;5.88;;;;;;;15.80;100.00;91040.13;5034481;28;20029;-71
2022/07/30 03:00:19;;;;;;;9.55;5.93;;;;;;;15.83;100.00;91042.91;5034436;28;20044;-71
2022/07/30 03:02:45;;;;;;;9.50;6.03;;;;;;;15.83;100.00;91039.44;5034217;28;20052;-71
2022/07/30 03:05:13;;;;;;;10.52;6.78;;;;;;;15.82;100.00;91041.34;5034297;28;20499;-71
2022/07/30 03:07:39;;;;;;;9.45;6.63;;;;;;;15.69;100.00;91030.97;5034339;28;20031;-71
2022/07/30 03:10:06;;;;;;;8.65;5.22;;;;;;;15.58;100.00;91038.66;5034155;28;20071;-71
2022/07/30 03:12:33;;;;;;;10.80;5.88;;;;;;;15.44;100.00;91054.28;5034026;28;20057;-71
2022/07/30 03:14:59;;;;;;;10.15;6.38;;;;;;;15.28;100.00;91040.75;5033925;28;20095;-72
2022/07/30 03:17:30;;;;;;;13.68;6.32;;;;;;;15.32;100.00;91046.25;5034048;28;20396;-72
2022/07/30 03:19:58;;;;;;;7.80;5.75;;;;;;;15.25;100.00;91042.22;5033977;28;20021;-72
2022/07/30 03:22:26;;;;;;;10.32;6.18;;;;;;;15.23;100.00;91049.81;5033868;28;20427;-72
2022/07/30 03:24:53;;;;;;;10.85;6.63;;;;;;;15.19;100.00;91043.56;5033924;28;20162;-72
2022/07/30 03:27:20;;;;;;;9.40;6.45;;;;;;;15.21;100.00;91041.31;5033576;28;20033;-72
2022/07/30 03:29:48;;;;;;;9.48;6.07;;;;;;;15.29;100.00;91037.75;5033630;28;20025;-72
2022/07/30 03:32:14;;;;;;;14.02;7.32;;;;;;;15.36;100.00;91049.81;5033702;28;20514;-72
2022/07/30 03:34:41;;;;;;;9.80;6.22;;;;;;;15.41;100.00;91038.88;5033723;28;20025;-72
2022/07/30 03:37:07;;;;;;;8.75;6.40;;;;;;;15.50;100.00;91043.03;5033722;28;20029;-72
2022/07/30 03:39:34;;;;;;;8.70;6.28;;;;;;;15.61;100.00;91038.00;5033727;28;20127;-72
2022/07/30 03:42:01;;;;;;;9.50;6.25;;;;;;;15.66;100.00;91045.06;5033522;28;20033;-72
2022/07/30 03:44:28;;;;;;;10.30;6.35;;;;;;;15.52;100.00;91040.78;5032296;28;20033;-72
2022/07/30 03:46:54;;;;;;;7.35;5.75;;;;;;;15.51;100.00;91055.31;5033484;28;20553;-71
2022/07/30 03:49:22;;;;;;;8.88;5.85;;;;;;;15.53;100.00;91057.66;5033340;28;20029;-72
2022/07/30 03:51:49;;;;;;;9.30;6.30;;;;;;;15.55;100.00;91056.19;5032129;28;20037;-70
2022/07/30 03:54:15;;;;;;;9.25;5.82;;;;;;;15.65;100.00;91065.72;5033291;28;20044;-72
2022/07/30 03:56:41;;;;;;;9.48;6.07;;;;;;;15.69;100.00;91055.09;5033337;28;20038;-72
2022/07/30 03:59:07;;;;;;;9.30;6.22;;;;;;;15.80;100.00;91059.69;5033329;28;20029;-71
2022/07/30 04:01:33;;;;;;;10.75;6.32;;;;;;;15.91;100.00;91056.53;5033280;28;20492;-71
2022/07/30 04:04:07;;;;;;;9.07;6.50;;;;;;;16.06;100.00;91059.31;5033158;28;20109;-71
2022/07/30 04:06:35;;;;;;;;;;;;;;;16.19;100.00;91057.38;5033528;28;20108;-72
2022/07/30 04:09:00;;;;;;;9.95;6.63;;;;;;;16.15;100.00;91054.59;5033068;28;20372;-72
2022/07/30 04:11:26;;;;;;;8.63;6.03;;;;;;;16.09;100.00;91041.75;5033015;28;20033;-71
2022/07/30 04:13:51;;;;;;;8.52;6.32;;;;;;;16.11;100.00;91058.31;5032946;28;20113;-72
2022/07/30 04:16:33;;;;;;;10.50;6.45;;;;;;;16.05;100.00;91048.91;5032826;28;20049;-72
2022/07/30 04:19:00;;;;;;;9.68;5.90;;;;;;;16.15;100.00;91051.91;5032782;28;20045;-72
2022/07/30 04:21:27;;;;;;;8.98;5.68;;;;;;;16.20;100.00;91053.56;5032893;28;20029;-72
2022/07/30 04:23:54;;;;;;;9.25;6.05;;;;;;;16.20;100.00;91050.91;5032774;28;20108;-71
2022/07/30 04:26:21;;;;;;;6.88;5.13;;;;;;;16.24;100.00;91038.34;5032794;28;20084;-71
2022/07/30 04:28:46;;;;;;;8.68;6.15;;;;;;;16.41;100.00;91048.84;5032659;28;20503;-71
2022/07/30 04:31:13;;;;;;;9.77;6.13;;;;;;;16.58;100.00;91052.38;5031291;28;20077;-71
2022/07/30 04:33:39;;;;;;;9.35;5.65;;;;;;;16.75;100.00;91057.47;5032572;28;20033;-72
2022/07/30 04:36:07;;;;;;;8.55;5.07;;;;;;;16.93;100.00;91056.03;5032695;28;20400;-72
2022/07/30 04:38:33;;;;;;;8.73;6.07;;;;;;;17.01;100.00;91048.94;5032387;28;20073;-72
2022/07/30 04:40:58;;;;;;;9.43;6.63;;;;;;;17.20;100.00;91062.50;5031792;28;20061;-72
2022/07/30 04:43:24;;;;;;;8.88;6.43;;;;;;;17.38;100.00;91048.72;5031183;28;20029;-72
2022/07/30 04:45:49;;;;;;;7.50;5.82;;;;;;;17.50;100.00;91048.63;5032411;28;20171;-71
2022/07/30 04:48:15;;;;;;;6.90;5.50;;;;;;;17.71;100.00;91053.78;5032349;28;20513;-72
2022/07/30 04:50:44;;;;;;;11.20;5.93;;;;;;;17.82;100.00;91052.09;5032237;28;20483;-71
2022/07/30 04:53:10;;;;;;;8.10;6.00;;;;;;;17.91;100.00;91041.94;5032099;28;20033;-72
2022/07/30 04:55:41;;;;;;;9.30;6.28;;;;;;;17.95;100.00;91042.81;5032130;28;20392;-71
2022/07/30 04:58:09;;;;;;;8.50;5.60;;;;;;;18.04;100.00;91045.31;5032120;28;20033;-72
2022/07/30 05:00:37;;;;;;;10.05;6.97;;;;;;;18.12;100.00;91045.09;5032057;28;20032;-72
2022/07/30 05:03:04;;;;;;;10.35;6.57;;;;;;;18.41;100.00;91043.81;5032144;28;20041;-72
2022/07/30 05:05:31;;;;;;;8.32;6.00;;;;;;;18.30;100.00;91021.25;5032312;28;20501;-72
2022/07/30 05:07:58;;;;;;;9.07;6.20;;;;;;;18.69;100.00;91049.03;5032031;28;20029;-72
2022/07/30 05:10:24;;;;;;;8.38;6.07;;;;;;;18.83;100.00;91049.31;5031800;28;20095;-72
2022/07/30 05:12:50;;;;;;;8.13;6.03;;;;;;;18.90;100.00;91042.50;5031865;28;20457;-72
2022/07/30 05:15:16;;;;;;;8.65;5.97;;;;;;;19.26;100.00;91043.94;5030382;28;20053;-72
2022/07/30 05:17:41;;;;;;;7.35;5.88;;;;;;;19.53;100.00;91050.19;5031920;28;20025;-72
2022/07/30 05:20:08;;;;;;;8.00;5.65;;;;;;;19.87;100.00;91037.66;5031742;28;20083;-72
2022/07/30 05:22:33;;;;;;;7.38;5.10;;;;;;;20.11;100.00;91052.69;5031691;28;20100;-72
2022/07/30 05:24:59;;;;;;;7.85;5.88;;;;;;;20.29;100.00;91045.59;5031633;28;20022;-72
2022/07/30 05:27:24;;;;;;;7.43;5.80;;;;;;;20.90;100.00;91049.91;5031689;28;20112;-72
2022/07/30 05:29:50;;;;;;;9.18;5.95;;;;;;;22.86;95.22;91049.66;5031499;28;20446;-72
2022/07/30 05:32:16;;;;;;;9.57;6.20;;;;;;;25.25;76.30;91041.63;5031461;28;20487;-72
2022/07/30 05:34:41;;;;;;;7.18;5.22;;;;;;;28.09;61.51;91048.31;5031602;28;20550;-73
2022/07/30 05:37:06;;;;;;;7.20;5.82;;;;;;;28.70;56.21;91045.41;5031591;28;20025;-73
2022/07/30 05:39:32;;;;;;;8.48;5.28;;;;;;;30.83;51.50;91051.19;5031449;28;20427;-70
2022/07/30 05:41:57;;;;;;;7.15;5.45;;;;;;;32.43;46.43;91044.72;5031640;28;20075;-70
2022/07/30 05:44:23;;;;;;;5.95;4.85;;;;;;;33.35;43.90;91053.97;5031497;28;20079;-70
2022/07/30 05:46:48;;;;;;;6.38;5.32;;;;;;;33.61;42.74;91057.34;5031392;28;20090;-70
2022/07/30 05:49:14;;;;;;;6.35;5.15;;;;;;;33.87;42.24;91046.97;5031296;28;20442;-70
2022/07/30 05:51:40;;;;;;;6.22;4.95;;;;;;;33.94;41.95;91060.53;5031193;28;20029;-70
2022/07/30 05:54:06;;;;;;;8.68;6.10;;;;;;;33.12;43.55;91052.34;5031221;28;20032;-71
2022/07/30 05:56:31;;;;;;;6.35;4.93;;;;;;;33.82;42.37;91048.31;5029742;28;20030;-71
2022/07/30 05:58:57;;;;;;;6.22;4.90;;;;;;;33.28;42.74;91052.16;5031125;28;20418;-71
2022/07/30 06:01:22;;;;;;;5.95;4.95;;;;;;;34.11;42.20;91053.56;5031267;28;20065;-71
2022/07/30 06:03:48;;;;;;;6.60;5.88;;;;;;;34.73;40.32;91045.25;5031142;28;20022;-70
2022/07/30 06:06:13;;;;;;;5.35;4.50;;;;;;;35.18;40.09;91043.81;5031137;28;20025;-70
2022/07/30 06:08:39;;;;;;;6.32;4.60;;;;;;;35.15;39.18;91047.50;5031145;28;20025;-70
2022/07/30 06:11:04;;;;;;;5.82;4.85;;;;;;;35.77;38.56;91050.00;5031050;28;20025;-70
2022/07/30 06:13:30;;;;;;;5.78;5.20;;;;;;;35.64;38.27;91047.38;5031086;28;20025;-70
2022/07/30 06:15:55;;;;;;;8.30;5.18;;;;;;;34.84;39.44;91047.56;5030931;28;20128;-71
2022/07/30 06:18:21;;;;;;;5.80;4.90;;;;;;;35.83;39.04;91045.38;5031036;28;20506;-70
2022/07/30 06:20:48;;;;;;;6.68;5.20;;;;;;;35.24;39.38;91041.22;5030990;28;20510;-69
2022/07/30 06:23:16;;;;;;;7.43;5.50;;;;;;;35.61;38.36;91036.47;5030978;28;20025;-72
2022/07/30 06:25:42;;;;;;;7.30;5.50;;;;;;;35.59;38.37;91036.19;5030941;28;20022;-72
2022/07/30 06:28:07;;;;;;;5.95;5.22;;;;;;;34.59;39.88;91037.53;5030946;28;20025;-72
2022/07/30 06:30:33;;;;;;;6.90;4.85;;;;;;;34.94;39.17;91040.88;5030863;28;20491;-71
2022/07/30 06:32:58;;;;;;;6.93;5.25;;;;;;;36.44;37.60;91040.66;5030866;28;20130;-71
2022/07/30 06:35:24;;;;;;;6.13;5.53;;;;;;;37.77;35.80;91035.75;5030797;28;20082;-72
2022/07/30 06:37:49;;;;;;;6.97;5.30;;;;;;;36.60;36.93;91042.28;5030747;28;20045;-71
2022/07/30 06:40:14;;;;;;;5.35;4.85;;;;;;;35.93;38.13;91035.84;5031079;28;20486;-71
2022/07/30 06:42:40;;;;;;;5.68;4.57;;;;;;;35.42;38.87;91030.94;5030488;28;20479;-70
2022/07/30 06:45:06;;;;;;;5.43;4.70;;;;;;;35.77;38.95;91033.38;5030774;28;20222;-71
2022/07/30 06:47:33;;;;;;;7.75;5.03;;;;;;;34.52;40.09;91046.09;5030861;28;20017;-69
2022/07/30 06:50:03;;;;;;;6.78;4.78;;;;;;;36.87;37.77;91038.63;5030463;28;20072;-73
2022/07/30 06:52:28;;;;;;;5.50;4.63;;;;;;;37.53;35.15;91044.06;5030631;28;20515;-73
2022/07/30 06:54:54;;;;;;;5.40;4.50;;;;;;;37.00;36.55;91039.19;5030586;28;20037;-71
2022/07/30 06:57:19;;;;;;;6.97;4.47;;;;;;;36.08;37.07;91035.19;5030698;28;20022;-71
2022/07/30 06:59:45;;;;;;;5.28;3.92;;;;;;;36.03;37.33;91028.28;5030595;28;20384;-71
2022/07/30 07:02:10;;;;;;;4.63;4.03;;;;;;;35.49;38.31;91035.41;5030196;28;20172;-70
2022/07/30 07:04:36;;;;;;;4.18;3.78;;;;;;;38.18;35.49;91042.25;5034116;28;20036;-70
2022/07/30 07:07:01;;;;;;;4.38;3.97;;;;;;;39.38;34.30;91045.16;5034248;28;20499;-70
2022/07/30 07:09:27;;;;;;;7.80;4.80;;;;;;;39.98;32.40;91040.09;5025576;28;20865;-68
2022/07/30 07:11:52;;;;;;;4.28;3.67;;;;;;;38.17;34.51;91032.41;5033834;28;20040;-68
2022/07/30 07:14:18;;;;;;;6.15;4.13;;;;;;;39.01;33.90;91038.56;5032894;28;20033;-71
2022/07/30 07:16:44;;;;;;;7.88;5.07;;;;;;;39.37;33.14;91034.50;5020108;28;20389;-69
2022/07/30 07:19:09;;;;;;;4.53;4.13;;;;;;;38.26;33.69;91035.13;5016436;28;20488;-72
2022/07/30 07:21:35;;;;;;;4.00;3.47;;;;;;;37.19;35.70;91037.06;5013785;28;20056;-72
2022/07/30 07:24:01;;;;;;;5.22;4.20;;;;;;;39.41;32.82;91032.28;5013651;28;20032;-73
2022/07/30 07:26:29;;;;;;;4.28;3.88;;;;;;;40.27;32.78;91039.09;5013870;28;20022;-71
2022/07/30 07:28:55;;;;;;;5.03;3.70;;;;;;;42.34;29.62;91035.50;5013631;28;20559;-73
2022/07/30 07:31:21;;;;;;;4.28;3.88;;;;;;;41.94;30.04;91033.09;5018520;28;20112;-72
2022/07/30 07:33:47;;;;;;;5.45;4.68;;;;;;;42.34;29.76;91031.94;5033382;28;20491;-72
2022/07/30 07:36:13;;;;;;;15.05;10.27;;;;;;;43.65;28.52;91027.25;5033537;28;20029;-70
2022/07/30 07:38:39;;;;;;;3.75;3.42;;;;;;;43.56;27.88;91033.91;5033054;28;20157;-69
2022/07/30 07:41:04;;;;;;;4.95;3.33;;;;;;;41.43;30.13;91016.13;5033508;28;20538;-72
2022/07/30 07:43:30;;;;;;;3.08;2.80;;;;;;;41.12;30.15;91025.31;5033204;28;20108;-74
2022/07/30 07:45:56;;;;;;;4.35;3.40;;;;;;;40.37;30.85;91020.94;5033190;28;20025;-74
2022/07/30 07:48:21;;;;;;;4.43;3.10;;;;;;;41.80;30.03;91018.06;5033250;28;20032;-75
2022/07/30 07:50:47;;;;;;;3.47;3.17;;;;;;;41.71;29.41;91021.09;5032977;28;20030;-72
2022/07/30 07:53:12;;;;;;;4.70;3.38;;;;;;;41.02;30.18;91024.00;5032634;28;20037;-72
2022/07/30 07:55:38;;;;;;;6.05;3.15;;;;;;;41.63;29.68;91026.34;5032727;28;20205;-72
2022/07/30 07:58:04;;;;;;;3.40;3.05;;;;;;;42.51;29.67;91018.00;5032851;28;20021;-67
2022/07/30 08:00:30;;;;;;;3.05;2.65;;;;;;;41.20;30.89;91018.03;5032863;28;20048;-65
2022/07/30 08:02:55;;;;;;;3.45;3.15;;;;;;;41.31;30.10;91020.13;5032474;28;20021;-65
2022/07/30 08:05:21;;;;;;;9.68;7.30;;;;;;;40.41;30.22;91015.94;5033455;28;20155;-63
2022/07/30 08:07:46;;;;;;;3.00;2.70;;;;;;;41.15;29.63;91015.94;5032650;28;20537;-66
2022/07/30 08:10:13;;;;;;;4.03;2.92;;;;;;;40.00;30.53;91009.69;5032609;28;20055;-73
2022/07/30 08:12:39;;;;;;;3.00;2.70;;;;;;;42.15;28.76;91017.69;5032246;28;20022;-71
2022/07/30 08:15:06;;;;;;;2.97;2.67;;;;;;;42.49;29.24;91014.91;5031099;28;20036;-73
2022/07/30 08:17:31;;;;;;;2.97;2.67;;;;;;;41.80;29.24;91016.03;5032591;28;20017;-73
2022/07/30 08:19:59;;;;;;;3.35;2.92;;;;;;;42.90;28.14;91015.94;5032766;28;20025;-70
2022/07/30 08:22:25;;;;;;;2.90;2.60;;;;;;;41.22;30.39;91011.94;5031982;28;20029;-72
2022/07/30 08:24:50;;;;;;;2.60;2.40;;;;;;;41.24;29.83;91009.41;5032938;28;20029;-75
2022/07/30 08:27:16;;;;;;;3.17;2.70;;;;;;;41.78;29.39;91010.19;5032590;28;20491;-73
2022/07/30 08:29:42;;;;;;;3.72;2.95;;;;;;;42.60;28.02;91006.53;5032303;28;20566;-73
2022/07/30 08:32:07;;;;;;;4.50;2.60;;;;;;;43.28;27.74;91000.34;5032167;28;20029;-74
2022/07/30 08:34:33;;;;;;;2.70;2.50;;;;;;;42.11;27.95;90998.34;5032368;28;20030;-74
2022/07/30 08:36:58;;;;;;;2.70;2.47;;;;;;;40.52;29.62;90996.50;5031855;28;20480;-72
2022/07/30 08:39:23;;;;;;;2.83;2.50;;;;;;;39.62;30.98;90988.53;5028956;28;20027;-72
2022/07/30 08:41:49;;;;;;;3.08;2.50;;;;;;;39.44;31.10;91000.66;5032439;28;20556;-69
2022/07/30 08:44:17;;;;;;;2.60;2.40;;;;;;;41.03;29.73;90997.63;5032447;28;20541;-69
2022/07/30 08:46:45;;;;;;;3.20;2.90;;;;;;;41.71;28.14;90999.50;5031948;28;20075;-70
2022/07/30 08:49:11;;;;;;;3.33;2.78;;;;;;;42.16;28.97;90999.63;5032091;28;20455;-69
2022/07/30 08:51:38;;;;;;;5.10;3.10;;;;;;;43.77;26.45;91006.34;5031974;28;20059;-69
2022/07/30 08:54:05;;;;;;;2.60;2.40;;;;;;;43.56;27.74;90996.72;5031525;28;20036;-68
2022/07/30 08:56:32;;;;;;;3.20;2.90;;;;;;;43.77;27.57;91005.56;5031962;28;20052;-69
2022/07/30 08:59:02;;;;;;;2.85;2.65;;;;;;;42.63;27.48;90997.91;5031982;28;20524;-69
2022/07/30 09:01:27;;;;;;;4.15;3.17;;;;;;;41.78;30.02;90993.41;5031707;28;20462;-68
2022/07/30 09:03:53;;;;;;;3.53;3.22;;;;;;;41.36;29.09;90990.72;5031884;28;20078;-68
2022/07/30 09:06:18;;;;;;;4.75;3.30;;;;;;;42.34;28.93;90979.56;5031730;28;20108;-68
2022/07/30 09:08:44;;;;;;;2.83;2.63;;;;;;;42.31;29.48;90983.38;5031339;28;20029;-70
2022/07/30 09:11:10;;;;;;;3.58;3.28;;;;;;;43.26;28.53;90991.72;5031645;28;20096;-69
2022/07/30 09:13:40;;;;;;;3.75;3.03;;;;;;;42.31;28.04;90980.59;5031841;28;20049;-69
2022/07/30 09:16:06;;;;;;;3.75;3.40;;;;;;;40.26;30.01;90979.03;5031384;28;20064;-68
2022/07/30 09:18:39;;;;;;;3.33;2.78;;;;;;;40.59;28.77;90984.88;5031452;28;20065;-68
2022/07/30 09:21:22;;;;;;;3.60;2.75;;;;;;;39.65;31.31;90968.03;5031550;28;20033;-69
2022/07/30 09:24:00;;;;;;;2.65;2.42;;;;;;;40.56;29.19;90971.94;5031267;28;20037;-69
2022/07/30 09:26:28;;;;;;;2.72;2.38;;;;;;;40.59;29.99;90959.03;5030986;28;20400;-69
2022/07/30 09:28:54;;;;;;;2.90;2.70;;;;;;;42.12;28.25;90968.34;5031209;28;20523;-69
2022/07/30 09:31:20;;;;;;;4.25;3.00;;;;;;;42.16;29.24;90960.50;5031265;28;20029;-70
2022/07/30 09:33:46;;;;;;;3.03;2.72;;;;;;;42.61;28.59;90968.88;5031342;28;20037;-70
2022/07/30 09:36:16;;;;;;;2.60;2.40;;;;;;;42.81;27.50;90965.81;5030882;28;20406;-69
2022/07/30 09:38:50;;;;;;;4.03;2.55;;;;;;;42.97;28.13;90967.84;5030827;28;20034;-70
2022/07/30 09:41:18;;;;;;;5.95;2.97;;;;;;;42.66;28.53;90968.91;5030776;28;20525;-67
2022/07/30 09:43:49;;;;;;;2.70;2.50;;;;;;;42.87;26.55;90968.59;5032669;28;20033;-67
2022/07/30 09:46:15;;;;;;;2.92;2.53;;;;;;;42.58;26.92;90964.31;5033598;28;20048;-70
2022/07/30 09:48:42;;;;;;;2.88;2.58;;;;;;;41.77;27.30;90958.34;5049238;28;20120;-71
2022/07/30 09:51:07;;;;;;;3.00;2.70;;;;;;;41.36;27.62;90949.59;5032907;28;20103;-70
2022/07/30 09:53:35;;;;;;;2.35;2.17;;;;;;;40.76;28.37;90948.75;5030702;28;20041;-70
2022/07/30 09:56:20;;;;;;;3.70;2.60;;;;;;;40.66;29.09;90942.59;5031195;28;20036;-71
2022/07/30 09:58:47;;;;;;;3.00;2.70;;;;;;;41.57;28.88;90936.19;5030920;28;20039;-73
2022/07/30 10:01:12;;;;;;;3.20;2.58;;;;;;;41.60;27.81;90949.16;5031087;28;20041;-70
2022/07/30 10:03:42;;;;;;;2.58;2.38;;;;;;;40.24;29.24;90950.84;5030980;28;20037;-72
2022/07/30 10:06:07;;;;;;;3.45;2.97;;;;;;;40.33;30.39;90945.88;5030561;28;20033;-73
2022/07/30 10:08:44;;;;;;;2.90;2.45;;;;;;;40.98;28.90;90943.28;5030137;28;20527;-72
2022/07/30 10:11:12;;;;;;;3.53;2.85;;;;;;;41.69;28.42;90937.78;5031192;28;20036;-72
2022/07/30 10:13:39;;;;;;;2.90;2.70;;;;;;;41.99;28.21;90940.88;5030868;28;20041;-72
2022/07/30 10:16:06;;;;;;;5.43;2.83;;;;;;;40.72;28.33;90937.06;5030737;28;20499;-71
2022/07/30 10:18:32;;;;;;;2.92;2.63;;;;;;;41.45;27.99;90937.41;5030876;28;20496;-71
2022/07/30 10:21:00;;;;;;;2.85;2.53;;;;;;;40.97;27.85;90933.41;5030464;28;20116;-73
2022/07/30 10:23:28;;;;;;;3.28;2.72;;;;;;;41.77;28.59;90936.00;5030691;28;20048;-70
2022/07/30 10:25:58;;;;;;;2.47;2.20;;;;;;;39.89;28.37;90925.97;5030846;28;20045;-68
2022/07/30 10:28:24;;;;;;;3.03;2.63;;;;;;;38.55;30.41;90920.34;5030827;28;20033;-73
2022/07/30 10:30:52;;;;;;;3.28;2.97;;;;;;;40.81;28.74;90924.91;5030551;28;20099;-71
2022/07/30 10:33:19;;;;;;;3.83;3.03;;;;;;;41.86;27.97;90927.41;5025163;28;20033;-73
2022/07/30 10:35:44;;;;;;;4.93;3.78;;;;;;;41.87;28.17;90919.78;5028219;28;20036;-71
2022/07/30 10:38:13;;;;;;;2.92;2.70;;;;;;;41.74;27.03;90920.25;5029334;28;20037;-73
2022/07/30 10:40:57;;;;;;;3.50;2.80;;;;;;;41.58;28.53;90926.53;5034232;28;20471;-72
2022/07/30 10:43:52;;;;;;;4.07;2.70;;;;;;;42.50;27.23;90932.53;5033473;28;20037;-69
2022/07/30 10:46:38;;;;;;;8.00;6.07;;;;;;;42.73;27.70;90925.63;5014599;28;20489;-71
2022/07/30 10:49:11;;;;;;;2.97;2.47;;;;;;;40.51;27.07;90914.09;5034357;28;20112;-72
2022/07/30 10:51:50;;;;;;;3.42;2.42;;;;;;;39.33;28.23;90912.25;5033543;28;20068;-72
2022/07/30 10:54:34;;;;;;;3.20;2.85;;;;;;;40.67;28.34;90909.88;5033353;28;20116;-71
2022/07/30 10:57:20;;;;;;;5.78;2.75;;;;;;;40.86;27.83;90904.66;5034117;28;20036;-71
2022/07/30 10:59:48;;;;;;;3.33;2.65;;;;;;;41.91;27.31;90911.13;5034073;28;20045;-71
2022/07/30 11:02:14;;;;;;;2.60;2.40;;;;;;;41.86;28.24;90913.41;5033572;28;20033;-71
2022/07/30 11:04:40;;;;;;;2.72;2.53;;;;;;;42.79;26.40;90912.41;5033745;28;20037;-71
2022/07/30 11:07:21;;;;;;;2.67;2.30;;;;;;;40.09;27.89;90900.84;5033388;28;20030;-71
2022/07/30 11:09:53;;;;;;;3.13;2.63;;;;;;;39.53;27.64;90897.53;5033437;28;20495;-71
2022/07/30 11:12:46;;;;;;;3.85;2.63;;;;;;;39.41;27.72;90893.84;5033611;28;20059;-70
2022/07/30 11:15:13;;;;;;;3.05;2.75;;;;;;;38.97;28.65;90882.19;5030387;28;20060;-68
2022/07/30 11:18:09;;;;;;;3.03;2.70;;;;;;;38.59;29.72;90892.31;5032489;28;20030;-67
2022/07/30 11:20:35;;;;;;;3.15;2.85;;;;;;;39.79;29.95;90872.47;5012679;28;20062;-68
2022/07/30 11:23:37;;;;;;;2.60;2.40;;;;;;;39.78;27.70;90874.50;5013426;28;20426;-66
2022/07/30 11:26:03;;;;;;;3.80;3.22;;;;;;;38.63;30.34;90876.19;5025024;28;20050;-67
2022/07/30 11:28:45;;;;;;;3.75;3.08;;;;;;;39.68;29.86;90875.91;5020626;28;20029;-67
2022/07/30 11:31:36;;;;;;;3.97;2.70;;;;;;;39.17;29.38;90873.88;5028488;28;20038;-68
2022/07/30 11:34:17;;;;;;;3.70;3.40;;;;;;;38.88;30.44;90875.53;5033875;28;20037;-67